Home > Products > Valid Products > TAF

000
FTUS42 KILM 241100
TAFCRE
TAF
KCRE 241120Z 2412/2512 06009KT P6SM SKC
     FM241800 15010KT P6SM SKC
     FM250200 18005KT P6SM SKC
     FM250800 00000KT P6SM BKN020=



000
FTUS42 KILM 241100
TAFLBT
TAF
KLBT 241120Z 2412/2512 02004KT P6SM SKC
     FM241300 06010KT P6SM SKC
     FM242000 17006KT P6SM SKC
     FM250200 VRB03KT P6SM SKC=



000
FTUS42 KILM 241100
TAFFLO
TAF
KFLO 241120Z 2412/2512 02007KT P6SM SKC
     FM241300 08009KT P6SM SKC
     FM241900 14007KT P6SM SKC=



000
FTUS42 KILM 241100
TAFMYR
TAF
KMYR 241120Z 2412/2512 05012KT P6SM SKC
     FM241800 15011KT P6SM SKC
     FM250200 13007KT P6SM SKC
     FM250800 00000KT P6SM BKN020=



000
FTUS42 KILM 241100
TAFILM
TAF
KILM 241120Z 2412/2512 05005KT P6SM SKC
     FM241800 14008KT P6SM SKC
     FM250200 VRB02KT P6SM SKC
     FM250800 00000KT P6SM BKN020=



000
FTUS42 KILM 240500 CCA
TAFCRE
TAF COR
KCRE 240557Z 2406/2506 02005KT P6SM SKC
     FM240900 06009KT P6SM SKC
     FM241800 15010KT P6SM SKC
     FM250200 18005KT P6SM SKC=



000
FTUS42 KILM 240500
TAFFLO
TAF
KFLO 240536Z 2406/2506 02007KT P6SM SKC
     FM241300 08009KT P6SM SKC
     FM241900 14007KT P6SM SKC=



000
FTUS42 KILM 240500
TAFLBT
TAF
KLBT 240536Z 2406/2506 02004KT P6SM SKC
     FM241300 06010KT P6SM SKC
     FM242000 17006KT P6SM SKC
     FM250200 VRB03KT P6SM SKC=



000
FTUS42 KILM 240500
TAFCRE
TAF
KCRE 240536Z 2406/2506 02005KT P6SM SKC
      TEMPO 2406/2409 2SM BR
     FM240900 06009KT P6SM SKC
     FM241800 15010KT P6SM SKC
     FM250200 18005KT P6SM SKC=



000
FTUS42 KILM 240500
TAFMYR
TAF
KMYR 240536Z 2406/2506 02005KT P6SM SKC
     FM240900 05012KT P6SM SKC
     FM241800 15011KT P6SM SKC
     FM250200 13007KT P6SM SKC
      AMD LTD TO CLD VIS AND WIND TIL 241100=



000
FTUS42 KILM 240500
TAFILM
TAF
KILM 240536Z 2406/2506 01006KT P6SM SKC
     FM240800 05005KT P6SM SKC
     FM241800 14008KT P6SM SKC
     FM250200 VRB02KT P6SM SKC=



000
FTUS42 KILM 240100 CCA
TAFCRE
TAF COR
KCRE 240101Z 2400/2424 18004KT P6SM SKC
      TEMPO 2401/2403 1SM BR
     FM240300 03004KT P6SM SKC
     FM240900 06009KT P6SM SKC
     FM241800 15010KT P6SM SKC=



000
FTUS42 KILM 240000 AAA
TAFLBT
TAF AMD
KLBT 240002Z 2400/2424 02008KT P6SM SKC
     FM241300 06010KT P6SM SKC
     FM242000 17006KT P6SM SKC=



000
FTUS42 KILM 240000 AAA
TAFFLO
TAF AMD
KFLO 240001Z 2400/2424 03007KT P6SM SKC
     FM241300 08009KT P6SM SKC
     FM241900 14007KT P6SM SKC=



000
FTUS42 KILM 232300
TAFILM
TAF
KILM 232321Z 2400/2424 36009KT P6SM SKC
     FM240800 05005KT P6SM SKC
     FM241800 14008KT P6SM SKC=



000
FTUS42 KILM 232300
TAFCRE
TAF
KCRE 232321Z 2400/2424 18009KT P6SM SKC
     FM240300 03004KT P6SM SKC
     FM240900 06009KT P6SM SKC
     FM241800 15010KT P6SM SKC=



000
FTUS42 KILM 232300
TAFLBT
TAF
KLBT 232321Z 2400/2424 30011G18KT P6SM SKC
     FM240200 02008KT P6SM SKC
     FM241300 06010KT P6SM SKC
     FM242000 17006KT P6SM SKC=



000
FTUS42 KILM 232300
TAFMYR
TAF
KMYR 232321Z 2400/2424 17010KT P6SM SKC
     FM240300 02005KT P6SM SKC
     FM240900 05012KT P6SM SKC
     FM241800 14011KT P6SM SKC
      AMD LTD TO CLD VIS AND WIND 2404/2411=



000
FTUS42 KILM 232300
TAFFLO
TAF
KFLO 232321Z 2400/2424 31011G16KT P6SM SKC
     FM240200 03007KT P6SM SKC
     FM241300 08009KT P6SM SKC
     FM241900 14007KT P6SM SKC=



000
FTUS42 KILM 231700
TAFMYR
TAF
KMYR 231720Z 2318/2418 30012KT P6SM SKC
     FM232300 02005KT P6SM SKC=



000
FTUS42 KILM 231700
TAFCRE
TAF
KCRE 231720Z 2318/2418 30009KT P6SM SKC
     FM232300 03004KT P6SM SKC=



000
FTUS42 KILM 231700
TAFILM
TAF
KILM 231720Z 2318/2418 31014G20KT P6SM SKC
     FM240000 36005KT P6SM SKC=



000
FTUS42 KILM 231700
TAFFLO
TAF
KFLO 231720Z 2318/2418 31011KT P6SM SKC
     FM240000 03005KT P6SM SKC=



000
FTUS42 KILM 231700
TAFLBT
TAF
KLBT 231720Z 2318/2418 33010G19KT P6SM SKC
     FM240000 02004KT P6SM SKC=



000
FTUS42 KILM 231100 CCA
TAFCRE
TAF COR
KCRE 231159Z 2312/2412 29007KT P6SM SCT005
      TEMPO 2312/2313 5SM BR
     FM231400 35010G16KT P6SM SKC
     FM232300 03004KT P6SM SKC=



000
FTUS42 KILM 231100 CCA
TAFFLO
TAF COR
KFLO 231157Z 2312/2412 30006KT P6SM FEW005
     FM231400 34011G17KT P6SM SKC
     FM240000 03005KT P6SM SKC=



000
FTUS42 KILM 231100 CCA
TAFLBT
TAF COR
KLBT 231155Z 2312/2412 28005KT P6SM SKC
      TEMPO 2312/2313 3SM BR
     FM231400 34012G18KT P6SM SKC
     FM240000 02004KT P6SM SKC=



000
FTUS42 KILM 231100
TAFILM
TAF
KILM 231121Z 2312/2412 28007KT P6SM SKC
     FM231400 32012G18KT P6SM SKC
     FM240000 36005KT P6SM SKC=



000
FTUS42 KILM 231100
TAFLBT
TAF
KLBT 231121Z 2312/2412 29006KT P6SM SKC
      TEMPO 2312/2313 2SM BR
     FM231400 34012G18KT P6SM SKC
     FM240000 02004KT P6SM SKC=



000
FTUS42 KILM 231100
TAFFLO
TAF
KFLO 231121Z 2312/2412 30006KT P6SM FEW005
      TEMPO 2312/2313 4SM BR
     FM231400 34011G17KT P6SM SKC
     FM240000 03005KT P6SM SKC=



000
FTUS42 KILM 231100
TAFMYR
TAF
KMYR 231121Z 2312/2412 29008KT P6SM FEW005
      TEMPO 2312/2313 3SM BR BKN005
     FM231400 34012G18KT P6SM SKC
     FM232300 02005KT P6SM SKC=



000
FTUS42 KILM 231100
TAFCRE
TAF
KCRE 231121Z 2312/2412 29007KT P6SM FEW005
      TEMPO 2312/2313 4SM BR
     FM231400 35010G16KT P6SM SKC
     FM232300 03004KT P6SM SKC=



000
FTUS42 KILM 231000 AAB
TAFLBT
TAF AMD
KLBT 231050Z 2311/2406 29005KT 2SM BR SKC
     FM231200 31006KT P6SM SKC
     FM231400 36011G18KT P6SM SKC
     FM240100 VRB04KT P6SM SKC=



000
FTUS42 KILM 231000 AAA
TAFMYR
TAF AMD
KMYR 231029Z 2310/2406 29008KT P6SM FEW002
      TEMPO 2310/2312 3SM BR BKN002
     FM231300 01012G18KT P6SM SKC
     FM232200 34010KT P6SM SKC
     FM240000 02005KT P6SM SKC
      AMD LTD TO CLD VIS AND WIND TIL 231100=



000
FTUS42 KILM 230800 AAA
TAFLBT
TAF AMD
KLBT 230816Z 2308/2406 29006KT P6SM SKC
      TEMPO 2308/2310 4SM BR
     FM231400 36011G18KT P6SM SKC
     FM240100 VRB04KT P6SM SKC=



000
FTUS42 KILM 230800 AAA
TAFFLO
TAF AMD
KFLO 230816Z 2308/2406 29006KT P6SM SKC
      TEMPO 2308/2310 5SM BR
     FM231400 34011G18KT P6SM SKC
     FM232200 35009KT P6SM SKC
     FM240200 04004KT P6SM SKC=



000
FTUS42 KILM 230500
TAFMYR
TAF
KMYR 230539Z 2306/2406 27005KT P6SM SCT100
     FM231300 01012G18KT P6SM SKC
     FM232200 34010KT P6SM SKC
     FM240000 02005KT P6SM SKC
      AMD LTD TO CLD VIS AND WIND TIL 231100=



000
FTUS42 KILM 230500
TAFILM
TAF
KILM 230539Z 2306/2406 27006KT P6SM SCT100
     FM231300 34012G18KT P6SM SKC
     FM231800 30014G20KT P6SM SKC
     FM240000 32005KT P6SM SKC=



000
FTUS42 KILM 230500
TAFCRE
TAF
KCRE 230539Z 2306/2406 27006KT P6SM SCT100
     FM231300 35011G17KT P6SM SKC
     FM232200 34008KT P6SM SKC
     FM240000 03002KT P6SM SKC=



000
FTUS42 KILM 230500
TAFLBT
TAF
KLBT 230539Z 2306/2406 29006KT P6SM SKC
     FM231400 36011G18KT P6SM SKC
     FM240100 VRB04KT P6SM SKC=



000
FTUS42 KILM 230500
TAFFLO
TAF
KFLO 230539Z 2306/2406 29006KT P6SM SKC
     FM231400 34011G18KT P6SM SKC
     FM232200 35009KT P6SM SKC
     FM240200 04004KT P6SM SKC=



000
FTUS42 KILM 230200 AAA
TAFFLO
TAF AMD
KFLO 230258Z 2303/2324 24006KT P6SM SCT080 SCT100
     FM230600 32007KT P6SM FEW050
     FM231200 01010KT P6SM SKC
     FM231600 34011G18KT P6SM SKC
     FM232200 35009KT P6SM SKC=



000
FTUS42 KILM 230200 AAA
TAFCRE
TAF AMD
KCRE 230258Z 2303/2324 25009KT P6SM SCT080 SCT100
     FM230600 33007KT P6SM FEW050
     FM231300 35011G17KT P6SM SKC
     FM232200 34008KT P6SM SKC=



000
FTUS42 KILM 230200 AAA
TAFILM
TAF AMD
KILM 230257Z 2303/2324 25008KT P6SM BKN080
     FM230600 31009KT P6SM FEW050
     FM231300 34012G18KT P6SM SKC
     FM231800 30014G20KT P6SM SKC=



000
FTUS42 KILM 222300
TAFFLO
TAF
KFLO 222322Z 2300/2324 32007G20KT P6SM -RA SCT060 OVC090
     FM230400 32007KT P6SM FEW050
     FM231200 01010KT P6SM SKC
     FM231600 34011G18KT P6SM SKC
     FM232200 35009KT P6SM SKC=



000
FTUS42 KILM 222300
TAFCRE
TAF
KCRE 222322Z 2300/2324 21015KT P6SM VCSH SCT050 BKN100
      TEMPO 2300/2304 21015G25KT 6SM -RA SCT030 BKN050
     FM230600 33007KT P6SM FEW050
     FM231300 35011G17KT P6SM SKC
     FM232200 34008KT P6SM SKC=



000
FTUS42 KILM 222300
TAFMYR
TAF
KMYR 222322Z 2300/2324 20010KT P6SM VCSH SCT050 BKN100
      TEMPO 2300/2304 21015G25KT P6SM -RA SCT030 BKN050
     FM230600 32009KT P6SM FEW050
     FM231300 01012G18KT P6SM SKC
     FM232200 34010KT P6SM SKC
      AMD LTD TO CLD VIS AND WIND 2304/2311=



000
FTUS42 KILM 222300
TAFILM
TAF
KILM 222322Z 2300/2324 21012KT P6SM VCSH SCT050 BKN100
      TEMPO 2300/2304 21015G20KT P6SM -RA SCT030 BKN050
     FM230600 31009KT P6SM FEW050
     FM231300 34012G18KT P6SM SKC
     FM231800 30014G20KT P6SM SKC=



000
FTUS42 KILM 222300
TAFLBT
TAF
KLBT 222322Z 2300/2324 23010KT P6SM VCSH SCT060 OVC090
      TEMPO 2300/2301 23010G16KT 6SM -RA BKN060
     FM230400 32006KT P6SM FEW050
     FM231400 36011G18KT P6SM SKC
     FM232300 32010KT P6SM SKC=



000
FTUS42 KILM 221700
TAFMYR
TAF
KMYR 221722Z 2218/2318 20013G18KT P6SM FEW060 SCT150
     FM222200 26008KT P6SM VCSH BKN060 BKN150
     FM230600 32009KT P6SM FEW050
     FM231300 01012G18KT P6SM SKC=



000
FTUS42 KILM 221700
TAFILM
TAF
KILM 221722Z 2218/2318 22012G17KT P6SM SCT150
     FM222300 26008KT P6SM VCSH BKN060 BKN150
     FM230600 31009KT P6SM FEW050
     FM231300 34012G18KT P6SM SKC=



000
FTUS42 KILM 221700
TAFLBT
TAF
KLBT 221722Z 2218/2318 24010KT P6SM FEW060 SCT150
     FM222100 27010KT P6SM VCTS BKN060CB BKN120
     FM230300 32006KT P6SM FEW050
     FM231200 36011KT P6SM SKC=



000
FTUS42 KILM 221700
TAFFLO
TAF
KFLO 221722Z 2218/2318 24012KT P6SM SCT060 SCT150
     FM222100 27010KT P6SM VCTS BKN060CB BKN120
     FM230300 32007KT P6SM FEW050
     FM231200 01010KT P6SM SKC=



000
FTUS42 KILM 221700
TAFCRE
TAF
KCRE 221722Z 2218/2318 20013G18KT P6SM FEW060 SCT150
     FM222200 25008KT P6SM VCSH BKN060 BKN150
     FM230600 33007KT P6SM FEW050
     FM231300 01011G17KT P6SM SKC=



000
FTUS42 KILM 221100
TAFLBT
TAF
KLBT 221121Z 2212/2312 24007KT P6SM SCT150
     FM221700 26011KT P6SM VCSH FEW050 BKN150
     FM222000 27010KT P6SM VCSH BKN050 BKN120
     FM230300 32006KT P6SM SKC=



000
FTUS42 KILM 221100
TAFMYR
TAF
KMYR 221121Z 2212/2312 24009KT P6SM SCT150
     FM221700 22013G19KT P6SM FEW050 BKN200
     FM222300 26009KT P6SM VCSH BKN050 BKN150
     FM230600 32008KT P6SM FEW050=



000
FTUS42 KILM 221100
TAFFLO
TAF
KFLO 221121Z 2212/2312 25008KT P6SM SCT150
     FM221700 26011KT P6SM FEW050 BKN150
     FM222000 27010KT P6SM VCSH BKN050 BKN120
     FM230300 32007KT P6SM SKC=



000
FTUS42 KILM 221100
TAFCRE
TAF
KCRE 221121Z 2212/2312 24008KT P6SM SCT150
     FM221700 22012G18KT P6SM FEW050 BKN200
     FM222300 26008KT P6SM VCSH BKN050 BKN150
     FM230600 33007KT P6SM FEW050=



000
FTUS42 KILM 221100
TAFILM
TAF
KILM 221121Z 2212/2312 24007KT P6SM SCT150
     FM221800 23012G18KT P6SM FEW050 BKN200
     FM230000 26008KT P6SM VCSH BKN050 BKN150
     FM230600 31008KT P6SM FEW050=



000
FTUS42 KILM 220900 AAA
TAFMYR
TAF AMD
KMYR 220940Z 2210/2306 24007KT P6SM BKN250
     FM221330 22009KT P6SM FEW030 BKN250
     FM221800 24012G18KT P6SM SCT050 BKN200
     FM230000 28006KT P6SM VCSH SCT030 BKN150
      AMD LTD TO CLD VIS AND WIND TIL 221100=



000
FTUS42 KILM 220900 AAA
TAFCRE
TAF AMD
KCRE 220940Z 2210/2306 25005KT P6SM BKN250
     FM221330 22008KT P6SM FEW030 BKN250
     FM221800 25011G16KT P6SM SCT050 BKN200
     FM230000 27008KT P6SM VCSH SCT030 BKN150=



000
FTUS42 KILM 220800 AAA
TAFLBT
TAF AMD
KLBT 220823Z 2208/2306 VRB03KT P6SM BKN150
      TEMPO 2208/2210 2SM BR
     FM221330 24008KT P6SM FEW030 BKN150
     FM221700 27012KT P6SM VCSH SCT050 BKN100
     FM230000 29008KT P6SM VCSH BKN050 OVC100=



000
FTUS42 KILM 220500 CCA
TAFCRE
TAF COR
KCRE 220558Z 2206/2306 VRB01KT 4SM BR BKN250
      TEMPO 2206/2208 2SM BR
     FM221330 22008KT P6SM FEW030 BKN250
     FM221800 25011G16KT P6SM SCT050 BKN200
     FM230000 27008KT P6SM VCSH SCT030 BKN150=



000
FTUS42 KILM 220500
TAFFLO
TAF
KFLO 220531Z 2206/2306 VRB02KT P6SM BKN150
      TEMPO 2206/2208 5SM BR
     FM221330 25008KT P6SM FEW030 BKN150
     FM221700 27011KT P6SM VCSH SCT050 BKN100
     FM222300 29007KT P6SM VCSH BKN050 OVC100=



000
FTUS42 KILM 220500
TAFMYR
TAF
KMYR 220531Z 2206/2306 VRB03KT P6SM BKN250
      TEMPO 2206/2210 4SM BR
     FM221330 22009KT P6SM FEW030 BKN250
     FM221800 24012G18KT P6SM SCT050 BKN200
     FM230000 28006KT P6SM VCSH SCT030 BKN150
      AMD LTD TO CLD VIS AND WIND TIL 221100=



000
FTUS42 KILM 220500
TAFILM
TAF
KILM 220531Z 2206/2306 VRB03KT P6SM BKN250
      TEMPO 2206/2210 3SM BR
     FM221330 24008KT P6SM FEW030 BKN250
     FM221800 23012G17KT P6SM SCT050 SCT200
     FM230000 25008KT P6SM VCSH SCT030 BKN150=



000
FTUS42 KILM 220500
TAFLBT
TAF
KLBT 220531Z 2206/2306 VRB03KT P6SM BKN150
      TEMPO 2206/2208 4SM BR
     FM221330 24008KT P6SM FEW030 BKN150
     FM221700 27012KT P6SM VCSH SCT050 BKN100
     FM230000 29008KT P6SM VCSH BKN050 OVC100=



000
FTUS42 KILM 220500
TAFCRE
TAF
KCRE 220531Z 2206/2306 VRB01KT 6SM BR BKN250
      TEMPO 2206/2210 3SM BR
     FM221330 22008KT P6SM FEW030 BKN250
     FM221800 25011G16KT P6SM SCT050 BKN200
     FM230000 27008KT P6SM VCSH SCT030 BKN150=



000
FTUS42 KILM 212300
TAFILM
TAF
KILM 212323Z 2200/2224 35006KT P6SM FEW040
     FM220200 VRB03KT P6SM SCT200
      TEMPO 2209/2211 6SM BR
     FM221330 24008KT P6SM FEW030 SCT250
     FM221800 23012G17KT P6SM SCT050 SCT250=



000
FTUS42 KILM 212300
TAFFLO
TAF
KFLO 212323Z 2200/2224 VRB02KT P6SM FEW200
      TEMPO 2209/2211 6SM BR
     FM221330 25008KT P6SM FEW030 SCT200
     FM221700 27011KT P6SM VCSH SCT050 BKN100=



000
FTUS42 KILM 212300
TAFLBT
TAF
KLBT 212323Z 2200/2224 VRB03KT P6SM FEW200
      TEMPO 2208/2211 5SM BR
     FM221330 24008KT P6SM FEW030 SCT250
     FM221700 27012KT P6SM VCSH SCT050 BKN100=



000
FTUS42 KILM 212300
TAFMYR
TAF
KMYR 212323Z 2200/2224 VRB03KT P6SM FEW040 FEW200
      TEMPO 2208/2211 6SM BR
     FM221330 22009KT P6SM FEW030 SCT250
     FM221800 24012G18KT P6SM SCT050 BKN250
      AMD LTD TO CLD VIS AND WIND 2204/2211=



000
FTUS42 KILM 212300
TAFCRE
TAF
KCRE 212323Z 2200/2224 02006KT P6SM BKN040
     FM220300 VRB01KT P6SM FEW200
      TEMPO 2208/2211 5SM BR
     FM221330 22008KT P6SM FEW030 SCT250
     FM221800 25011G16KT P6SM SCT050 BKN250=



000
FTUS42 KILM 211700
TAFLBT
TAF
KLBT 211720Z 2118/2218 36009KT P6SM SKC
     FM220200 VRB03KT P6SM FEW250
      TEMPO 2208/2211 5SM BR
     FM221330 24008KT P6SM FEW030 BKN250
     FM221700 23010KT P6SM VCSH SCT040 BKN100=



000
FTUS42 KILM 211700
TAFCRE
TAF
KCRE 211720Z 2118/2218 35011KT P6SM FEW035
     FM220000 VRB04KT P6SM SKC
      TEMPO 2209/2211 6SM BR
     FM221330 22008KT P6SM FEW030 SCT250=



000
FTUS42 KILM 211700
TAFFLO
TAF
KFLO 211720Z 2118/2218 01008KT P6SM SKC
     FM212200 30003KT P6SM FEW250
      TEMPO 2208/2211 5SM BR
     FM221330 24008KT P6SM FEW030 BKN250
     FM221700 25010KT P6SM VCSH SCT040 BKN100=



000
FTUS42 KILM 211700
TAFILM
TAF
KILM 211720Z 2118/2218 36012KT P6SM BKN030
     FM211930 36011KT P6SM SCT030
     FM212300 02005KT P6SM SKC
      TEMPO 2209/2211 6SM BR
     FM221330 23008KT P6SM FEW030 SCT250=



000
FTUS42 KILM 211700
TAFMYR
TAF
KMYR 211720Z 2118/2218 34012KT P6SM FEW035
     FM212300 VRB03KT P6SM SKC
     FM221330 22008KT P6SM FEW030 SCT250=



    US Dept of Commerce
    National Oceanic and Atmospheric Administration
    National Weather Service
    1325 East West Highway
    Silver Spring, MD 20910
    Page Author: NWS Internet Services Team
Disclaimer
Information Quality
Credits
Glossary
Privacy Policy
Freedom of Information Act (FOIA)
About Us
Career Opportunities